Time;durP1;ratioP1;P1;durP2;ratioP2;P2;SDS_P1;SDS_P2;PMS_P1;PMS_P2;Temp;Humidity;BMP_temperature;BMP_pressure;BME280_temperature;BME280_humidity;BME280_pressure;Samples;Min_cycle;Max_cycle;Signal;HPM_P1;HPM_P2
2024/02/13 00:01:44;;;;;;;13.90;6.90;;;;;;;5.73;95.63;99959.73;111444;1206;138512;-71
2024/02/13 00:04:13;;;;;;;12.60;6.70;;;;;;;5.72;95.57;99962.77;111449;1211;96379;-71
2024/02/13 00:06:41;;;;;;;10.90;6.20;;;;;;;5.70;95.58;99964.45;111380;1213;138775;-71
2024/02/13 00:09:07;;;;;;;13.00;6.90;;;;;;;5.70;95.60;99971.00;111582;1208;97577;-71
2024/02/13 00:11:39;;;;;;;13.70;7.10;;;;;;;5.71;95.54;99977.37;111500;1207;98293;-70
2024/02/13 00:14:07;;;;;;;13.30;6.80;;;;;;;5.71;95.72;99975.94;111375;1210;138756;-71
2024/02/13 00:16:38;;;;;;;11.70;6.60;;;;;;;5.69;95.61;99977.94;111457;1206;98989;-71
2024/02/13 00:19:04;;;;;;;16.10;7.60;;;;;;;5.69;95.63;99983.10;111435;1207;138429;-71
2024/02/13 00:21:31;;;;;;;16.00;8.20;;;;;;;5.69;95.52;99983.29;111530;1206;97710;-71
2024/02/13 00:23:57;;;;;;;16.10;7.60;;;;;;;5.68;95.65;99983.48;111652;1211;96517;-71
2024/02/13 00:26:23;;;;;;;14.70;8.80;;;;;;;5.67;95.65;99986.86;111334;1210;138469;-71
2024/02/13 00:28:48;;;;;;;14.00;6.70;;;;;;;5.66;95.54;99983.39;111596;1210;97902;-71
2024/02/13 00:31:14;;;;;;;14.60;7.40;;;;;;;5.65;95.64;99984.82;111390;1206;138245;-71
2024/02/13 00:33:40;;;;;;;15.30;7.70;;;;;;;5.64;95.52;99988.59;111553;1208;97643;-70
2024/02/13 00:36:09;;;;;;;15.00;7.60;;;;;;;5.62;95.61;99993.77;111400;1213;97735;-71
2024/02/13 00:38:34;;;;;;;13.80;7.80;;;;;;;5.60;95.54;99997.94;111350;1207;138521;-71
2024/02/13 00:41:04;;;;;;;17.90;8.20;;;;;;;5.57;95.65;99998.92;111467;1212;97112;-71
2024/02/13 00:43:30;;;;;;;14.10;8.20;;;;;;;5.54;95.55;99995.45;111316;1212;138988;-71
2024/02/13 00:46:02;;;;;;;17.30;8.50;;;;;;;5.53;95.69;100000.29;111406;1221;97794;-71
2024/02/13 00:48:30;;;;;;;13.40;8.10;;;;;;;5.52;95.70;100004.39;111460;1211;97623;-71
2024/02/13 00:50:56;;;;;;;20.60;8.70;;;;;;;5.48;95.69;100003.63;111459;1212;97641;-71
2024/02/13 00:53:21;;;;;;;17.50;9.20;;;;;;;5.46;95.71;100013.80;111462;1211;97672;-71
2024/02/13 00:55:49;;;;;;;17.50;8.30;;;;;;;5.45;95.72;100019.84;111494;1212;138590;-71
2024/02/13 00:58:18;;;;;;;17.80;8.70;;;;;;;5.40;95.64;100023.22;111463;1211;97724;-71
2024/02/13 01:00:45;;;;;;;16.20;9.10;;;;;;;5.35;95.68;100030.63;111315;1210;139627;-71
2024/02/13 01:03:11;;;;;;;18.00;9.10;;;;;;;5.33;95.53;100024.32;111620;1212;99322;-71
2024/02/13 01:05:42;;;;;;;17.10;9.50;;;;;;;5.34;95.86;100031.04;111445;1212;97703;-71
2024/02/13 01:08:08;;;;;;;26.50;9.80;;;;;;;5.35;95.68;100034.17;111371;1207;138267;-71
2024/02/13 01:10:33;;;;;;;20.20;9.70;;;;;;;5.34;95.85;100038.11;111467;1212;97680;-71
2024/02/13 01:12:59;;;;;;;16.40;9.00;;;;;;;5.33;95.77;100036.92;111481;1211;138476;-71
2024/02/13 01:15:26;;;;;;;22.10;9.60;;;;;;;5.31;95.87;100044.60;111488;1211;97689;-71
2024/02/13 01:17:54;;;;;;;21.00;9.60;;;;;;;5.29;95.93;100038.97;111529;1212;97710;-71
2024/02/13 01:20:20;;;;;;;21.20;8.70;;;;;;;5.27;95.86;100051.45;111460;1211;138657;-71
2024/02/13 01:22:46;;;;;;;20.50;9.70;;;;;;;5.26;95.93;100054.69;111456;1207;97717;-71
2024/02/13 01:25:13;;;;;;;21.30;10.50;;;;;;;5.25;95.93;100058.95;111399;1206;137829;-71
2024/02/13 01:27:40;;;;;;;19.20;10.00;;;;;;;5.23;96.00;100059.54;111446;1206;97590;-71
2024/02/13 01:30:10;;;;;;;22.60;10.30;;;;;;;5.26;96.09;100064.23;111521;1210;97583;-71
2024/02/13 01:32:40;;;;;;;17.60;8.90;;;;;;;5.26;96.06;100068.83;111312;1206;139395;-71
2024/02/13 01:35:08;;;;;;;20.00;9.70;;;;;;;5.25;96.03;100072.23;111515;1211;99324;-71
2024/02/13 01:37:34;;;;;;;15.10;8.30;;;;;;;5.25;96.21;100074.36;111331;1211;138484;-71
2024/02/13 01:39:59;;;;;;;17.30;8.60;;;;;;;5.24;96.06;100079.87;111362;1211;97603;-71
2024/02/13 01:42:25;;;;;;;17.20;9.50;;;;;;;5.22;96.04;100085.24;111511;1212;97668;-71
2024/02/13 01:44:53;;;;;;;19.30;9.50;;;;;;;5.21;96.10;100089.00;111393;1212;138577;-71
2024/02/13 01:47:21;;;;;;;22.00;9.20;;;;;;;5.21;96.16;100088.82;111527;1212;107520;-71
2024/02/13 01:49:50;;;;;;;20.50;8.60;;;;;;;5.22;96.23;100091.45;111353;1214;139314;-71
2024/02/13 01:52:17;;;;;;;19.10;9.40;;;;;;;5.17;96.03;100085.77;111402;1212;97673;-71
2024/02/13 01:54:44;;;;;;;16.40;8.20;;;;;;;5.15;96.23;100088.33;111397;1219;138784;-71
2024/02/13 01:57:10;;;;;;;21.60;10.40;;;;;;;5.13;96.08;100087.52;111533;1209;97591;-71
2024/02/13 01:59:39;;;;;;;19.80;9.60;;;;;;;5.13;96.27;100086.44;111567;1206;97745;-71
2024/02/13 02:02:09;;;;;;;20.80;9.80;;;;;;;5.13;96.41;100090.87;111503;1207;138630;-71
2024/02/13 02:04:38;;;;;;;20.70;9.40;;;;;;;5.12;96.15;100088.95;111478;1209;97661;-71
2024/02/13 02:07:04;;;;;;;20.30;9.90;;;;;;;5.07;96.23;100098.66;111621;1209;138537;-72
2024/02/13 02:09:31;;;;;;;17.20;10.00;;;;;;;5.04;96.29;100108.69;111475;1212;97696;-71
2024/02/13 02:11:57;;;;;;;17.00;9.40;;;;;;;5.00;96.26;100117.48;111528;1212;98452;-71
2024/02/13 02:14:23;;;;;;;18.60;10.50;;;;;;;4.98;96.30;100107.63;111331;1206;138976;-71
2024/02/13 02:16:49;;;;;;;21.90;10.50;;;;;;;4.98;96.34;100112.92;111591;1210;97707;-71
2024/02/13 02:19:15;;;;;;;18.10;9.90;;;;;;;4.99;96.46;100113.95;111348;1212;138693;-71
2024/02/13 02:21:41;;;;;;;20.50;9.60;;;;;;;4.98;96.33;100118.58;111307;1214;98973;-71
2024/02/13 02:24:07;;;;;;;20.20;11.20;;;;;;;4.97;96.42;100114.90;111566;1211;97458;-71
2024/02/13 02:26:32;;;;;;;21.10;11.20;;;;;;;4.95;96.57;100117.78;111367;1212;138894;-71
2024/02/13 02:28:58;;;;;;;24.50;10.80;;;;;;;4.93;96.52;100124.04;111527;1206;96625;-70
2024/02/13 02:31:23;;;;;;;21.30;10.30;;;;;;;4.91;96.49;100124.28;111293;1211;139218;-70
2024/02/13 02:33:48;;;;;;;20.00;9.40;;;;;;;4.91;96.57;100126.05;111530;1206;97589;-70
2024/02/13 02:36:14;;;;;;;24.70;10.00;;;;;;;4.89;96.52;100131.05;111602;1207;97619;-70
2024/02/13 02:38:39;;;;;;;16.10;8.30;;;;;;;4.88;96.54;100137.46;111391;1210;138629;-70
2024/02/13 02:41:06;;;;;;;19.90;10.10;;;;;;;4.88;96.70;100135.50;111494;1212;97630;-70
2024/02/13 02:43:32;;;;;;;18.40;10.00;;;;;;;4.90;96.92;100139.53;111366;1212;138675;-70
2024/02/13 02:45:58;;;;;;;20.40;10.00;;;;;;;4.92;96.81;100144.96;111592;1206;97724;-71
2024/02/13 02:48:24;;;;;;;16.80;9.10;;;;;;;4.93;96.65;100153.09;111438;1212;96944;-70
2024/02/13 02:50:49;;;;;;;26.60;10.50;;;;;;;4.95;96.82;100155.16;111388;1212;138497;-70
2024/02/13 02:53:14;;;;;;;23.80;10.50;;;;;;;4.95;96.80;100157.45;111615;1206;97649;-70
2024/02/13 02:55:40;;;;;;;19.00;9.40;;;;;;;4.93;96.93;100159.63;111436;1206;138720;-70
2024/02/13 02:58:08;;;;;;;20.30;9.70;;;;;;;4.94;96.91;100163.87;111603;1209;97616;-70
2024/02/13 03:00:35;;;;;;;23.20;10.30;;;;;;;4.95;96.96;100170.36;111503;1211;100917;-71
2024/02/13 03:03:02;;;;;;;23.40;10.00;;;;;;;4.96;96.90;100170.70;111424;1206;138811;-70
2024/02/13 03:05:28;;;;;;;24.10;10.30;;;;;;;4.98;97.10;100175.95;111491;1207;97677;-70
2024/02/13 03:07:54;;;;;;;17.00;8.50;;;;;;;5.00;97.12;100180.33;111342;1209;139480;-70
2024/02/13 03:10:20;;;;;;;26.40;10.90;;;;;;;5.00;97.09;100183.50;111642;1209;97587;-70
2024/02/13 03:12:46;;;;;;;18.70;10.30;;;;;;;5.00;97.18;100187.59;111379;1206;138997;-70
2024/02/13 03:15:12;;;;;;;26.00;9.90;;;;;;;5.02;97.22;100195.33;111528;1212;97621;-70
2024/02/13 03:17:37;;;;;;;19.10;10.00;;;;;;;5.01;97.14;100197.65;111565;1212;97610;-70
2024/02/13 03:20:03;;;;;;;26.10;11.80;;;;;;;5.03;97.15;100202.73;111407;1206;140123;-70
2024/02/13 03:22:31;;;;;;;25.40;10.60;;;;;;;5.02;97.22;100211.77;111442;1212;97646;-70
2024/02/13 03:24:56;;;;;;;21.30;10.20;;;;;;;5.03;97.18;100214.58;111396;1210;138908;-70
2024/02/13 03:27:22;;;;;;;16.10;9.30;;;;;;;5.05;97.23;100219.33;111537;1209;97883;-70
2024/02/13 03:29:47;;;;;;;20.60;9.10;;;;;;;5.04;97.34;100228.39;111516;1212;97631;-70
2024/02/13 03:32:12;;;;;;;21.30;9.80;;;;;;;5.04;97.29;100228.90;111508;1212;138907;-70
2024/02/13 03:34:37;;;;;;;21.30;10.60;;;;;;;5.05;97.19;100228.89;111501;1210;107571;-70
2024/02/13 03:37:03;;;;;;;21.10;10.20;;;;;;;5.04;97.31;100230.31;111427;1210;139843;-73
2024/02/13 03:39:28;;;;;;;19.30;9.90;;;;;;;5.02;97.34;100233.04;111560;1206;97915;-70
2024/02/13 03:41:54;;;;;;;27.70;10.50;;;;;;;4.99;97.42;100235.05;111540;1212;98081;-70
2024/02/13 03:44:19;;;;;;;22.50;10.30;;;;;;;5.01;97.56;100239.44;111450;1212;139706;-70
2024/02/13 03:46:44;;;;;;;22.50;9.70;;;;;;;5.02;97.40;100247.22;111525;1208;97601;-70
2024/02/13 03:49:10;;;;;;;21.80;10.00;;;;;;;5.03;97.45;100247.34;111444;1206;140780;-69
2024/02/13 03:51:38;;;;;;;17.00;9.20;;;;;;;5.06;97.53;100248.69;111553;1218;97587;-70
2024/02/13 03:54:07;;;;;;;24.90;10.70;;;;;;;5.06;97.42;100255.59;111536;1206;97648;-70
2024/02/13 03:56:34;;;;;;;23.40;10.60;;;;;;;5.06;97.65;100257.90;111406;1210;138698;-70
2024/02/13 03:58:59;;;;;;;24.80;11.20;;;;;;;5.06;97.54;100268.15;111548;1207;97254;-70
2024/02/13 04:01:24;;;;;;;25.30;10.80;;;;;;;5.07;97.67;100273.29;111343;1211;139389;-70
2024/02/13 04:03:50;;;;;;;19.60;8.90;;;;;;;5.08;97.64;100286.17;111546;1212;97722;-70
2024/02/13 04:06:15;;;;;;;24.60;9.40;;;;;;;5.10;97.79;100285.41;111521;1212;97713;-70
2024/02/13 04:08:44;;;;;;;22.20;9.70;;;;;;;5.11;97.74;100292.12;111465;1206;138281;-70
2024/02/13 04:11:10;;;;;;;20.00;9.80;;;;;;;5.13;97.83;100286.40;111605;1210;107497;-70
2024/02/13 04:13:36;;;;;;;17.10;9.50;;;;;;;5.16;97.81;100292.88;111373;1206;138865;-70
2024/02/13 04:16:01;;;;;;;22.30;10.90;;;;;;;5.17;97.97;100293.54;111565;1212;97631;-70
2024/02/13 04:18:26;;;;;;;24.20;10.90;;;;;;;5.18;97.91;100289.08;111512;1211;97856;-70
2024/02/13 04:20:51;;;;;;;23.70;10.70;;;;;;;5.18;97.86;100292.10;111406;1210;138428;-70
2024/02/13 04:23:17;;;;;;;22.90;10.10;;;;;;;5.18;97.88;100294.58;111607;1206;97620;-70
2024/02/13 04:25:42;;;;;;;20.60;10.20;;;;;;;5.20;97.99;100293.29;111396;1212;139524;-70
2024/02/13 04:28:07;;;;;;;19.10;9.80;;;;;;;5.22;97.98;100296.58;111541;1210;97620;-70
2024/02/13 04:30:40;;;;;;;24.70;10.80;;;;;;;5.24;98.06;100302.89;111447;1209;97572;-70
2024/02/13 04:33:08;;;;;;;25.60;10.40;;;;;;;5.25;97.99;100306.58;111450;1212;97651;-70
2024/02/13 04:35:34;;;;;;;22.30;9.80;;;;;;;5.27;97.93;100305.82;111479;1212;111078;-70
2024/02/13 04:38:00;;;;;;;21.90;9.90;;;;;;;5.26;97.96;100311.70;111416;1209;139246;-70
2024/02/13 04:40:25;;;;;;;20.70;10.10;;;;;;;5.27;98.05;100312.04;111399;1212;97619;-70
2024/02/13 04:42:51;;;;;;;25.10;10.40;;;;;;;5.25;97.85;100310.30;111406;1211;139031;-70
2024/02/13 04:45:16;;;;;;;24.30;8.80;;;;;;;5.26;97.97;100318.80;111517;1206;97618;-70
2024/02/13 04:47:42;;;;;;;18.50;9.10;;;;;;;5.25;97.96;100320.77;111502;1206;97703;-70
2024/02/13 04:50:07;;;;;;;23.90;9.70;;;;;;;5.26;98.15;100325.86;111418;1212;138918;-70
2024/02/13 04:52:34;;;;;;;18.10;9.20;;;;;;;5.28;98.04;100326.35;111410;1206;97597;-70
2024/02/13 04:54:59;;;;;;;22.60;9.50;;;;;;;5.29;98.18;100334.65;111429;1212;139208;-70
2024/02/13 04:57:26;;;;;;;19.90;9.90;;;;;;;5.30;98.20;100333.55;111381;1212;97687;-71
2024/02/13 04:59:51;;;;;;;20.40;9.30;;;;;;;5.30;98.25;100334.80;111478;1212;97575;-70
2024/02/13 05:02:19;;;;;;;14.90;7.90;;;;;;;5.31;98.20;100337.06;111489;1212;139127;-71
2024/02/13 05:07:31;;;;;;;19.60;9.10;;;;;;;5.32;98.25;100341.30;111294;1212;139855;-70
2024/02/13 05:09:57;;;;;;;21.80;9.80;;;;;;;5.33;98.18;100345.35;111497;1212;97694;-70
2024/02/13 05:12:23;;;;;;;19.70;9.80;;;;;;;5.32;98.25;100340.76;111472;1209;97616;-72
2024/02/13 05:14:48;;;;;;;17.30;8.60;;;;;;;5.32;98.28;100346.08;111475;1206;139080;-70
2024/02/13 05:17:15;;;;;;;16.30;7.90;;;;;;;5.32;98.11;100352.81;111484;1212;107772;-70
2024/02/13 05:19:40;;;;;;;15.70;8.30;;;;;;;5.31;98.13;100351.41;111345;1212;138415;-70
2024/02/13 05:22:05;;;;;;;13.10;7.40;;;;;;;5.33;98.29;100364.48;111593;1208;97596;-70
2024/02/13 05:24:31;;;;;;;23.30;8.80;;;;;;;5.33;98.33;100372.79;111470;1212;97693;-70
2024/02/13 05:26:57;;;;;;;15.20;7.60;;;;;;;5.34;98.18;100372.07;111390;1210;138484;-69
2024/02/13 05:29:22;;;;;;;15.30;7.90;;;;;;;5.35;98.27;100375.23;111539;1212;97710;-69
2024/02/13 05:31:48;;;;;;;19.70;8.40;;;;;;;5.37;98.23;100375.89;111406;1210;138968;-70
2024/02/13 05:34:14;;;;;;;22.40;9.30;;;;;;;5.37;98.07;100375.71;111540;1209;97677;-69
2024/02/13 05:36:39;;;;;;;17.70;8.60;;;;;;;5.38;98.17;100376.56;111502;1211;97584;-70
2024/02/13 05:39:04;;;;;;;23.00;8.50;;;;;;;5.39;98.15;100383.29;111413;1210;138943;-71
2024/02/13 05:41:30;;;;;;;15.70;8.90;;;;;;;5.38;98.20;100391.27;111521;1206;98199;-71
2024/02/13 05:43:55;;;;;;;18.40;8.00;;;;;;;5.38;98.23;100398.18;111400;1212;138353;-70
2024/02/13 05:46:20;;;;;;;24.90;10.60;;;;;;;5.38;98.09;100402.98;111469;1212;100589;-71
2024/02/13 05:48:45;;;;;;;13.20;7.80;;;;;;;5.37;98.13;100398.55;111393;1212;139467;-70
2024/02/13 05:51:11;;;;;;;18.60;8.80;;;;;;;5.38;98.19;100410.06;111519;1206;97592;-71
2024/02/13 05:53:37;;;;;;;16.60;7.50;;;;;;;5.35;97.96;100405.70;111523;1211;97790;-71
2024/02/13 05:56:03;;;;;;;19.90;9.20;;;;;;;5.31;97.85;100409.70;111433;1209;138896;-70
2024/02/13 05:58:29;;;;;;;21.80;7.70;;;;;;;5.29;97.93;100411.35;111432;1212;98108;-71
2024/02/13 06:00:54;;;;;;;21.00;7.70;;;;;;;5.28;98.08;100425.02;111438;1210;139170;-70
2024/02/13 06:03:22;;;;;;;19.70;8.30;;;;;;;5.28;97.86;100422.89;111518;1212;100312;-71
2024/02/13 06:05:47;;;;;;;18.60;7.90;;;;;;;5.28;97.91;100432.99;111519;1206;97758;-70
2024/02/13 06:08:13;;;;;;;23.10;7.60;;;;;;;5.28;97.89;100430.33;111376;1206;138477;-70
2024/02/13 06:10:39;;;;;;;18.60;8.70;;;;;;;5.32;97.97;100438.75;111517;1212;99297;-70
2024/02/13 06:13:05;;;;;;;15.10;7.60;;;;;;;5.35;97.89;100443.96;111405;1211;138762;-71
2024/02/13 06:15:30;;;;;;;13.70;7.30;;;;;;;5.36;97.90;100445.00;111465;1212;97680;-71
2024/02/13 06:17:55;;;;;;;16.30;8.10;;;;;;;5.36;97.87;100447.85;111607;1211;97580;-70
2024/02/13 06:20:21;;;;;;;18.00;7.70;;;;;;;5.38;97.90;100455.58;111375;1206;138314;-71
2024/02/13 06:22:46;;;;;;;18.30;8.50;;;;;;;5.40;97.91;100460.86;111596;1206;97619;-71
2024/02/13 06:25:12;;;;;;;15.80;7.40;;;;;;;5.38;97.66;100465.87;111397;1206;138783;-70
2024/02/13 06:27:38;;;;;;;17.30;6.90;;;;;;;5.35;97.68;100472.48;111470;1210;97585;-70
2024/02/13 06:30:04;;;;;;;21.20;8.20;;;;;;;5.33;97.60;100466.70;111544;1212;97684;-71
2024/02/13 06:32:31;;;;;;;16.10;7.30;;;;;;;5.30;97.66;100469.27;111417;1212;138852;-71
2024/02/13 06:34:56;;;;;;;18.30;8.10;;;;;;;5.30;97.71;100472.63;111486;1210;97680;-71
2024/02/13 06:37:22;;;;;;;17.80;8.50;;;;;;;5.33;97.82;100477.88;111308;1212;138473;-71
2024/02/13 06:39:50;;;;;;;16.10;7.50;;;;;;;5.36;97.73;100482.75;111422;1223;96641;-70
2024/02/13 06:42:16;;;;;;;17.70;7.10;;;;;;;5.35;97.55;100492.70;111382;1212;96613;-71
2024/02/13 06:44:43;;;;;;;15.10;7.90;;;;;;;5.33;97.53;100498.59;111354;1206;138951;-71
2024/02/13 06:47:09;;;;;;;19.10;8.00;;;;;;;5.33;97.50;100506.55;111588;1209;97738;-71
2024/02/13 06:49:34;;;;;;;17.20;8.50;;;;;;;5.33;97.62;100509.41;111358;1206;138510;-71
2024/02/13 06:52:00;;;;;;;19.60;7.50;;;;;;;5.32;97.57;100517.39;111419;1206;97735;-71
2024/02/13 06:54:26;;;;;;;17.40;8.40;;;;;;;5.34;97.62;100522.65;111252;1212;97635;-71
2024/02/13 06:56:51;;;;;;;18.50;8.00;;;;;;;5.34;97.46;100533.47;111435;1209;139260;-70
2024/02/13 06:59:16;;;;;;;16.20;7.20;;;;;;;5.36;97.59;100533.24;111405;1206;97970;-70
2024/02/13 07:01:42;;;;;;;16.00;7.60;;;;;;;5.40;97.52;100536.70;111457;1206;138325;-71
2024/02/13 07:04:07;;;;;;;21.40;6.90;;;;;;;5.41;97.50;100543.92;111467;1212;99398;-71
2024/02/13 07:06:32;;;;;;;19.50;6.90;;;;;;;5.41;97.50;100547.30;111517;1206;98955;-71
2024/02/13 07:08:57;;;;;;;11.60;6.10;;;;;;;5.41;97.25;100550.50;111469;1206;139131;-71
2024/02/13 07:11:23;;;;;;;13.40;7.20;;;;;;;5.38;97.28;100553.39;111513;1211;97616;-71
2024/02/13 07:13:48;;;;;;;14.90;6.60;;;;;;;5.37;97.38;100554.49;111493;1222;139135;-71
2024/02/13 07:16:13;;;;;;;21.70;7.90;;;;;;;5.37;97.12;100558.02;111578;1209;98998;-71
2024/02/13 07:18:39;;;;;;;13.20;6.80;;;;;;;5.38;97.34;100557.48;111734;1211;96551;-71
2024/02/13 07:21:06;;;;;;;16.00;6.50;;;;;;;5.42;97.28;100566.60;111500;1211;138125;-72
2024/02/13 07:23:33;;;;;;;13.20;7.00;;;;;;;5.41;97.14;100567.14;111493;1212;97597;-71
2024/02/13 07:25:59;;;;;;;11.80;6.40;;;;;;;5.40;97.07;100565.41;111499;1209;138664;-71
2024/02/13 07:28:24;;;;;;;14.10;6.10;;;;;;;5.42;97.17;100566.77;111516;1206;97618;-71
2024/02/13 07:30:50;;;;;;;13.10;6.60;;;;;;;5.44;97.10;100574.33;111489;1206;139079;-70
2024/02/13 07:33:16;;;;;;;12.90;6.40;;;;;;;5.45;97.08;100575.73;111487;1212;98133;-71
2024/02/13 07:35:41;;;;;;;12.00;5.50;;;;;;;5.47;97.06;100573.90;111525;1206;97743;-70
2024/02/13 07:38:06;;;;;;;16.00;6.70;;;;;;;5.46;96.82;100577.13;111380;1218;138522;-71
2024/02/13 07:40:32;;;;;;;17.80;6.20;;;;;;;5.45;96.92;100583.35;111480;1209;97730;-70
2024/02/13 07:42:57;;;;;;;17.40;5.80;;;;;;;5.45;96.73;100582.66;111353;1212;138997;-70
2024/02/13 07:45:24;;;;;;;15.10;5.90;;;;;;;5.44;96.73;100588.17;111499;1212;97706;-70
2024/02/13 07:47:51;;;;;;;12.50;6.00;;;;;;;5.43;96.58;100590.66;111527;1210;98431;-69
2024/02/13 07:50:17;;;;;;;14.10;5.70;;;;;;;5.46;96.92;100589.19;111399;1210;138424;-70
2024/02/13 07:52:44;;;;;;;12.80;5.80;;;;;;;5.50;96.78;100592.27;111536;1211;97575;-70
2024/02/13 07:55:09;;;;;;;15.10;5.60;;;;;;;5.54;96.85;100594.48;111402;1206;138299;-72
2024/02/13 07:57:35;;;;;;;14.00;6.60;;;;;;;5.58;96.67;100598.13;111506;1209;97603;-71
2024/02/13 08:00:00;;;;;;;15.20;5.40;;;;;;;5.57;96.57;100601.68;111594;1206;97592;-72
2024/02/13 08:02:28;;;;;;;13.50;5.90;;;;;;;5.57;96.37;100610.19;111376;1206;138369;-70
2024/02/13 08:04:53;;;;;;;13.80;5.90;;;;;;;5.53;96.23;100609.55;111549;1210;97619;-70
2024/02/13 08:07:19;;;;;;;21.40;5.40;;;;;;;5.52;96.21;100618.45;111441;1205;138522;-70
2024/02/13 08:09:45;;;;;;;10.60;5.30;;;;;;;5.50;96.19;100625.41;111597;1210;97601;-69
2024/02/13 08:12:15;;;;;;;10.20;5.90;;;;;;;5.50;96.25;100619.92;111513;1210;97732;-69
2024/02/13 08:14:40;;;;;;;9.30;5.30;;;;;;;5.51;96.20;100622.38;111353;1210;138378;-69
2024/02/13 08:17:08;;;;;;;17.10;6.60;;;;;;;5.51;96.08;100624.86;111532;1206;97665;-69
2024/02/13 08:19:40;;;;;;;14.40;6.40;;;;;;;5.51;96.02;100631.77;111443;1206;139085;-69
2024/02/13 08:22:06;;;;;;;19.20;6.40;;;;;;;5.50;95.97;100634.10;110970;1212;107429;-70
2024/02/13 08:24:31;;;;;;;11.80;5.30;;;;;;;5.50;96.08;100634.98;110601;1212;97795;-70
2024/02/13 08:26:58;;;;;;;18.80;6.20;;;;;;;5.50;96.03;100640.30;110821;1209;139835;-71
2024/02/13 08:29:24;;;;;;;13.20;6.10;;;;;;;5.49;95.89;100641.40;110844;1222;100277;-70
2024/02/13 08:31:50;;;;;;;13.50;6.30;;;;;;;5.50;95.96;100648.08;112663;1205;138468;-70
2024/02/13 08:34:17;;;;;;;9.50;5.30;;;;;;;5.52;95.69;100653.54;111678;1212;97597;-70
2024/02/13 08:36:48;;;;;;;20.20;6.10;;;;;;;5.52;95.85;100653.71;111673;1206;111866;-70
2024/02/13 08:39:13;;;;;;;17.50;6.80;;;;;;;5.57;95.91;100667.45;111690;1206;100377;-70
2024/02/13 08:41:39;;;;;;;12.10;7.00;;;;;;;5.58;95.70;100660.15;111435;1210;97626;-70
2024/02/13 08:44:09;;;;;;;18.00;7.50;;;;;;;5.63;95.66;100667.13;111280;1212;139238;-70
2024/02/13 08:46:34;;;;;;;14.90;6.80;;;;;;;5.65;95.62;100668.32;111367;1206;111242;-69
2024/02/13 08:49:00;;;;;;;11.60;5.80;;;;;;;5.69;95.81;100670.02;111315;1210;139744;-69
2024/02/13 08:51:27;;;;;;;14.60;6.00;;;;;;;5.69;95.56;100672.83;111428;1210;97680;-70
2024/02/13 08:53:53;;;;;;;15.20;6.20;;;;;;;5.71;95.67;100673.87;111421;1209;98067;-69
2024/02/13 08:56:18;;;;;;;20.40;6.20;;;;;;;5.75;95.73;100680.15;111351;1206;138380;-69
2024/02/13 08:58:43;;;;;;;10.70;4.90;;;;;;;5.77;95.47;100686.13;111434;1212;97616;-69
2024/02/13 09:01:08;;;;;;;15.70;5.60;;;;;;;5.75;95.25;100685.65;111325;1212;139559;-70
2024/02/13 09:03:34;;;;;;;7.70;5.00;;;;;;;5.77;95.35;100691.98;111432;1209;97603;-69
2024/02/13 09:06:04;;;;;;;9.40;5.10;;;;;;;5.83;95.45;100694.51;111479;1206;99636;-70
2024/02/13 09:08:31;;;;;;;13.70;6.10;;;;;;;5.85;95.22;100697.28;111304;1209;138354;-69
2024/02/13 09:10:59;;;;;;;16.20;5.80;;;;;;;5.83;94.97;100694.33;111316;1209;97588;-69
2024/02/13 09:13:24;;;;;;;9.80;5.70;;;;;;;5.80;95.00;100699.88;111231;1208;138531;-70
2024/02/13 09:15:50;;;;;;;15.40;6.20;;;;;;;5.78;94.93;100707.22;111336;1206;97735;-71
2024/02/13 09:18:17;;;;;;;12.30;5.50;;;;;;;5.75;94.84;100711.35;111448;1209;96579;-70
2024/02/13 09:20:42;;;;;;;10.90;6.30;;;;;;;5.73;94.86;100715.13;111259;1211;138752;-70
2024/02/13 09:23:08;;;;;;;16.40;6.60;;;;;;;5.73;94.78;100718.48;111357;1206;97739;-69
2024/02/13 09:25:38;;;;;;;17.10;6.20;;;;;;;5.71;94.72;100716.21;111306;1206;139030;-70
2024/02/13 09:28:03;;;;;;;15.80;6.60;;;;;;;5.72;94.87;100722.77;111418;1207;107296;-69
2024/02/13 09:30:29;;;;;;;12.10;5.20;;;;;;;5.74;94.59;100723.27;111365;1208;97802;-69
2024/02/13 09:32:55;;;;;;;13.50;5.80;;;;;;;5.74;94.74;100729.83;111390;1210;139359;-69
2024/02/13 09:35:20;;;;;;;16.60;6.40;;;;;;;5.73;94.52;100728.25;111459;1209;97726;-69
2024/02/13 09:37:46;;;;;;;9.30;4.90;;;;;;;5.72;94.43;100730.39;111154;1208;138658;-69
2024/02/13 09:40:13;;;;;;;15.70;5.30;;;;;;;5.77;94.75;100730.10;111502;1206;97616;-69
2024/02/13 09:42:43;;;;;;;10.50;5.20;;;;;;;5.80;94.58;100725.79;111473;1210;111141;-69
2024/02/13 09:45:10;;;;;;;7.90;4.10;;;;;;;5.81;94.60;100727.52;111318;1212;138411;-69
2024/02/13 09:47:39;;;;;;;9.40;4.20;;;;;;;5.79;94.27;100726.69;111364;1209;97663;-71
2024/02/13 09:50:12;;;;;;;11.90;4.80;;;;;;;5.76;94.17;100729.76;111340;1206;138216;-70
2024/02/13 09:52:46;;;;;;;11.50;4.90;;;;;;;5.73;94.09;100732.14;111399;1212;97578;-70
2024/02/13 09:55:14;;;;;;;18.20;4.80;;;;;;;5.73;94.07;100730.02;111293;1212;140078;-70
2024/02/13 09:57:40;;;;;;;8.50;4.60;;;;;;;5.74;94.12;100734.96;111367;1208;99314;-71
2024/02/13 10:00:08;;;;;;;7.60;4.10;;;;;;;5.79;94.21;100734.48;111469;1210;97614;-70
2024/02/13 10:02:41;;;;;;;15.40;4.70;;;;;;;5.87;94.21;100743.19;111264;1205;138121;-71
2024/02/13 10:05:10;;;;;;;8.40;4.10;;;;;;;5.95;94.16;100747.84;111332;1206;97823;-71
2024/02/13 10:07:43;;;;;;;6.30;3.20;;;;;;;5.99;93.85;100750.56;111319;1206;138421;-69
2024/02/13 10:10:12;;;;;;;8.50;4.20;;;;;;;6.03;93.88;100749.94;111474;1206;99548;-70
2024/02/13 10:13:00;;;;;;;8.40;3.20;;;;;;;6.06;93.69;100756.42;111387;1209;105770;-69
2024/02/13 10:15:45;;;;;;;11.00;4.60;;;;;;;6.06;93.63;100757.14;111409;1210;97649;-71
2024/02/13 10:18:13;;;;;;;8.50;3.30;;;;;;;6.13;93.61;100752.90;111461;1206;99969;-70
2024/02/13 10:20:43;;;;;;;9.50;3.20;;;;;;;6.19;93.67;100757.72;111301;1210;139462;-72
2024/02/13 10:23:13;;;;;;;11.20;2.90;;;;;;;6.22;93.48;100767.94;111556;1206;99575;-70
2024/02/13 10:25:39;;;;;;;12.90;3.30;;;;;;;6.25;93.39;100757.23;111284;1211;138639;-70
2024/02/13 10:28:11;;;;;;;11.40;2.80;;;;;;;6.26;93.25;100767.31;111485;1211;97620;-70
2024/02/13 10:30:37;;;;;;;11.00;3.70;;;;;;;6.27;93.12;100765.86;111467;1206;97582;-72
2024/02/13 10:33:07;;;;;;;6.10;2.50;;;;;;;6.32;93.15;100770.55;111549;1209;138356;-69
2024/02/13 10:35:33;;;;;;;9.30;2.80;;;;;;;6.31;92.78;100770.38;111421;1210;99316;-71
2024/02/13 10:37:59;;;;;;;12.10;2.70;;;;;;;6.30;92.75;100777.51;111521;1206;138321;-71
2024/02/13 10:40:26;;;;;;;10.80;2.50;;;;;;;6.29;92.53;100775.05;111592;1206;97708;-70
2024/02/13 10:42:56;;;;;;;6.40;2.20;;;;;;;6.32;92.51;100776.77;111562;1206;111061;-70
2024/02/13 10:45:25;;;;;;;6.20;2.20;;;;;;;6.36;92.50;100775.77;111545;1205;99892;-70
2024/02/13 10:47:54;;;;;;;6.90;2.20;;;;;;;6.39;92.24;100782.27;111556;1206;107808;-70
2024/02/13 10:50:22;;;;;;;6.00;2.10;;;;;;;6.37;92.09;100779.47;111325;1209;139065;-72
2024/02/13 10:52:51;;;;;;;9.60;2.50;;;;;;;6.38;92.04;100777.86;111594;1209;97705;-70
2024/02/13 10:55:18;;;;;;;3.60;2.00;;;;;;;6.42;92.04;100778.64;111399;1206;139378;-71
2024/02/13 10:57:45;;;;;;;11.50;2.40;;;;;;;6.46;92.00;100778.20;111476;1210;97584;-70
2024/02/13 11:00:18;;;;;;;7.10;2.40;;;;;;;6.48;91.82;100782.93;111384;1211;97597;-71
2024/02/13 11:02:47;;;;;;;4.70;2.10;;;;;;;6.52;91.71;100780.00;111259;1211;139210;-70
2024/02/13 11:05:15;;;;;;;9.60;2.10;;;;;;;6.52;91.59;100780.18;111497;1206;97859;-71
2024/02/13 11:07:41;;;;;;;9.20;2.10;;;;;;;6.56;91.60;100779.38;111270;1205;138477;-70
2024/02/13 11:10:08;;;;;;;6.10;1.90;;;;;;;6.59;91.46;100784.27;111471;1206;98557;-70
2024/02/13 11:12:38;;;;;;;9.80;2.10;;;;;;;6.60;91.39;100784.23;111293;1212;100121;-71
2024/02/13 11:15:23;;;;;;;5.70;2.10;;;;;;;6.62;91.18;100777.08;111403;1206;138288;-70